Terminal Aerodrome Forecast
Issued by NWS

Home | Current Version | Previous Version | Graphics & Text | Print | Product List | Glossary On
Versions: 1 2 3 4 5 6 7 8 9 10 11 12 13 14 15 16 17 18
000
FTUS43 KICT 242300
TAFSLN
TAF
KSLN 242320Z 2500/2524 16015G21KT P6SM SCT250
     FM251400 21020G30KT P6SM BKN250
     FM252300 25013KT P6SM FEW090 SCT200=

USA.gov is the U.S. government's official web portal to all federal, state and local government web resources and services.